sensor_id;sensor_type;location;lat;lon;timestamp;P1;durP1;ratioP1;P2;durP2;ratioP2
75512;SDS011;64090;49.770;18.760;2024-01-07T00:02:09;6.30;;;4.80;;
75512;SDS011;64090;49.770;18.760;2024-01-07T00:05:12;6.60;;;4.50;;
75512;SDS011;64090;49.770;18.760;2024-01-07T00:08:15;8.00;;;7.10;;
75512;SDS011;64090;49.770;18.760;2024-01-07T00:11:18;9.50;;;6.80;;
75512;SDS011;64090;49.770;18.760;2024-01-07T00:14:21;11.00;;;7.70;;
75512;SDS011;64090;49.770;18.760;2024-01-07T00:17:24;14.20;;;9.40;;
75512;SDS011;64090;49.770;18.760;2024-01-07T00:20:27;17.40;;;8.60;;
75512;SDS011;64090;49.770;18.760;2024-01-07T00:23:30;14.60;;;9.20;;
75512;SDS011;64090;49.770;18.760;2024-01-07T00:26:33;11.80;;;8.20;;
75512;SDS011;64090;49.770;18.760;2024-01-07T00:29:35;13.00;;;7.80;;
75512;SDS011;64090;49.770;18.760;2024-01-07T00:32:38;14.80;;;9.90;;
75512;SDS011;64090;49.770;18.760;2024-01-07T00:35:41;15.30;;;9.00;;
75512;SDS011;64090;49.770;18.760;2024-01-07T00:38:44;14.00;;;9.60;;
75512;SDS011;64090;49.770;18.760;2024-01-07T00:41:48;12.00;;;7.80;;
75512;SDS011;64090;49.770;18.760;2024-01-07T00:44:50;13.20;;;8.90;;
75512;SDS011;64090;49.770;18.760;2024-01-07T00:47:53;11.20;;;7.40;;
75512;SDS011;64090;49.770;18.760;2024-01-07T00:50:57;12.00;;;7.70;;
75512;SDS011;64090;49.770;18.760;2024-01-07T00:54:00;15.00;;;8.90;;
75512;SDS011;64090;49.770;18.760;2024-01-07T00:57:03;14.70;;;9.50;;
75512;SDS011;64090;49.770;18.760;2024-01-07T01:00:06;14.20;;;9.10;;
75512;SDS011;64090;49.770;18.760;2024-01-07T01:03:10;16.10;;;11.10;;
75512;SDS011;64090;49.770;18.760;2024-01-07T01:06:13;15.10;;;9.90;;
75512;SDS011;64090;49.770;18.760;2024-01-07T01:09:16;19.40;;;10.70;;
75512;SDS011;64090;49.770;18.760;2024-01-07T01:12:19;18.00;;;13.10;;
75512;SDS011;64090;49.770;18.760;2024-01-07T01:15:21;15.40;;;9.80;;
75512;SDS011;64090;49.770;18.760;2024-01-07T01:18:24;15.40;;;9.60;;
75512;SDS011;64090;49.770;18.760;2024-01-07T01:21:27;13.70;;;10.10;;
75512;SDS011;64090;49.770;18.760;2024-01-07T01:24:30;15.50;;;9.20;;
75512;SDS011;64090;49.770;18.760;2024-01-07T01:27:33;12.70;;;7.90;;
75512;SDS011;64090;49.770;18.760;2024-01-07T01:30:36;12.20;;;8.70;;
75512;SDS011;64090;49.770;18.760;2024-01-07T01:33:39;13.90;;;9.50;;
75512;SDS011;64090;49.770;18.760;2024-01-07T01:36:43;12.70;;;8.10;;
75512;SDS011;64090;49.770;18.760;2024-01-07T01:39:46;12.80;;;7.70;;
75512;SDS011;64090;49.770;18.760;2024-01-07T01:42:50;12.50;;;7.60;;
75512;SDS011;64090;49.770;18.760;2024-01-07T01:45:54;13.20;;;7.50;;
75512;SDS011;64090;49.770;18.760;2024-01-07T01:48:58;9.90;;;7.20;;
75512;SDS011;64090;49.770;18.760;2024-01-07T01:52:01;14.20;;;9.60;;
75512;SDS011;64090;49.770;18.760;2024-01-07T01:55:04;13.10;;;8.10;;
75512;SDS011;64090;49.770;18.760;2024-01-07T01:58:08;13.10;;;8.30;;
75512;SDS011;64090;49.770;18.760;2024-01-07T02:01:12;11.00;;;7.70;;
75512;SDS011;64090;49.770;18.760;2024-01-07T02:04:15;13.10;;;7.40;;
75512;SDS011;64090;49.770;18.760;2024-01-07T02:07:18;13.10;;;8.10;;
75512;SDS011;64090;49.770;18.760;2024-01-07T02:10:22;11.10;;;7.80;;
75512;SDS011;64090;49.770;18.760;2024-01-07T02:13:25;10.70;;;6.80;;
75512;SDS011;64090;49.770;18.760;2024-01-07T02:16:28;8.80;;;6.00;;
75512;SDS011;64090;49.770;18.760;2024-01-07T02:19:30;12.90;;;9.60;;
75512;SDS011;64090;49.770;18.760;2024-01-07T02:22:33;10.10;;;7.60;;
75512;SDS011;64090;49.770;18.760;2024-01-07T02:25:37;11.30;;;7.80;;
75512;SDS011;64090;49.770;18.760;2024-01-07T02:28:40;13.30;;;9.30;;
75512;SDS011;64090;49.770;18.760;2024-01-07T02:31:42;14.40;;;9.30;;
75512;SDS011;64090;49.770;18.760;2024-01-07T02:34:45;15.10;;;9.30;;
75512;SDS011;64090;49.770;18.760;2024-01-07T02:37:49;15.40;;;10.60;;
75512;SDS011;64090;49.770;18.760;2024-01-07T02:40:52;12.50;;;9.10;;
75512;SDS011;64090;49.770;18.760;2024-01-07T02:43:55;12.10;;;7.60;;
75512;SDS011;64090;49.770;18.760;2024-01-07T02:46:58;14.10;;;8.70;;
75512;SDS011;64090;49.770;18.760;2024-01-07T02:50:01;12.60;;;8.00;;
75512;SDS011;64090;49.770;18.760;2024-01-07T02:53:04;11.80;;;6.90;;
75512;SDS011;64090;49.770;18.760;2024-01-07T02:56:07;15.30;;;10.00;;
75512;SDS011;64090;49.770;18.760;2024-01-07T02:59:11;12.90;;;7.90;;
75512;SDS011;64090;49.770;18.760;2024-01-07T03:02:14;12.10;;;8.00;;
75512;SDS011;64090;49.770;18.760;2024-01-07T03:05:54;12.10;;;7.60;;
75512;SDS011;64090;49.770;18.760;2024-01-07T03:24:31;14.80;;;9.40;;
75512;SDS011;64090;49.770;18.760;2024-01-07T03:27:48;19.60;;;12.00;;
75512;SDS011;64090;49.770;18.760;2024-01-07T03:31:10;16.50;;;9.20;;
75512;SDS011;64090;49.770;18.760;2024-01-07T03:37:59;13.60;;;8.70;;
75512;SDS011;64090;49.770;18.760;2024-01-07T03:41:30;17.80;;;10.60;;
75512;SDS011;64090;49.770;18.760;2024-01-07T03:48:31;16.10;;;10.30;;
75512;SDS011;64090;49.770;18.760;2024-01-07T03:51:48;15.40;;;9.60;;
75512;SDS011;64090;49.770;18.760;2024-01-07T03:58:45;11.10;;;7.40;;
75512;SDS011;64090;49.770;18.760;2024-01-07T04:05:38;14.20;;;8.10;;
75512;SDS011;64090;49.770;18.760;2024-01-07T04:16:05;13.60;;;9.50;;
75512;SDS011;64090;49.770;18.760;2024-01-07T04:19:44;11.60;;;7.80;;
75512;SDS011;64090;49.770;18.760;2024-01-07T04:31:04;11.80;;;7.90;;
75512;SDS011;64090;49.770;18.760;2024-01-07T04:41:59;12.20;;;8.70;;
75512;SDS011;64090;49.770;18.760;2024-01-07T04:49:07;14.40;;;7.90;;
75512;SDS011;64090;49.770;18.760;2024-01-07T04:52:41;14.70;;;9.70;;
75512;SDS011;64090;49.770;18.760;2024-01-07T05:00:02;11.30;;;7.30;;
75512;SDS011;64090;49.770;18.760;2024-01-07T05:03:28;12.10;;;7.60;;
75512;SDS011;64090;49.770;18.760;2024-01-07T05:11:02;13.20;;;8.60;;
75512;SDS011;64090;49.770;18.760;2024-01-07T05:18:11;11.30;;;7.60;;
75512;SDS011;64090;49.770;18.760;2024-01-07T05:21:44;11.80;;;7.70;;
75512;SDS011;64090;49.770;18.760;2024-01-07T05:40:24;15.90;;;8.10;;
75512;SDS011;64090;49.770;18.760;2024-01-07T05:51:44;13.80;;;7.90;;
75512;SDS011;64090;49.770;18.760;2024-01-07T06:03:10;9.40;;;6.20;;
75512;SDS011;64090;49.770;18.760;2024-01-07T06:06:30;12.10;;;6.90;;
75512;SDS011;64090;49.770;18.760;2024-01-07T06:13:43;11.10;;;7.30;;
75512;SDS011;64090;49.770;18.760;2024-01-07T06:17:19;11.40;;;7.60;;
75512;SDS011;64090;49.770;18.760;2024-01-07T06:32:25;13.70;;;7.80;;
75512;SDS011;64090;49.770;18.760;2024-01-07T06:43:33;10.80;;;6.70;;
75512;SDS011;64090;49.770;18.760;2024-01-07T06:47:04;12.90;;;7.30;;
75512;SDS011;64090;49.770;18.760;2024-01-07T06:54:19;12.00;;;6.90;;
75512;SDS011;64090;49.770;18.760;2024-01-07T07:09:31;16.90;;;12.40;;
75512;SDS011;64090;49.770;18.760;2024-01-07T07:17:41;13.60;;;9.00;;
75512;SDS011;64090;49.770;18.760;2024-01-07T07:56:03;11.60;;;7.70;;
75512;SDS011;64090;49.770;18.760;2024-01-07T08:06:55;18.70;;;12.60;;
75512;SDS011;64090;49.770;18.760;2024-01-07T08:10:11;10.70;;;6.90;;
75512;SDS011;64090;49.770;18.760;2024-01-07T08:17:18;14.80;;;8.80;;
75512;SDS011;64090;49.770;18.760;2024-01-07T08:28:35;14.70;;;9.90;;
75512;SDS011;64090;49.770;18.760;2024-01-07T08:40:21;12.00;;;7.60;;
75512;SDS011;64090;49.770;18.760;2024-01-07T08:51:40;13.50;;;7.30;;
75512;SDS011;64090;49.770;18.760;2024-01-07T08:59:00;12.40;;;8.10;;
75512;SDS011;64090;49.770;18.760;2024-01-07T09:02:42;14.50;;;8.80;;
75512;SDS011;64090;49.770;18.760;2024-01-07T09:09:53;13.50;;;8.10;;
75512;SDS011;64090;49.770;18.760;2024-01-07T09:21:20;10.90;;;6.50;;
75512;SDS011;64090;49.770;18.760;2024-01-07T09:28:38;11.50;;;7.80;;
75512;SDS011;64090;49.770;18.760;2024-01-07T09:44:02;10.50;;;5.90;;
75512;SDS011;64090;49.770;18.760;2024-01-07T09:51:07;11.80;;;8.60;;
75512;SDS011;64090;49.770;18.760;2024-01-07T10:02:45;11.00;;;6.80;;
75512;SDS011;64090;49.770;18.760;2024-01-07T10:06:19;9.50;;;6.80;;
75512;SDS011;64090;49.770;18.760;2024-01-07T10:09:46;9.50;;;6.30;;
75512;SDS011;64090;49.770;18.760;2024-01-07T10:13:11;13.30;;;8.00;;
75512;SDS011;64090;49.770;18.760;2024-01-07T10:16:15;9.90;;;6.50;;
75512;SDS011;64090;49.770;18.760;2024-01-07T10:19:39;10.80;;;7.00;;
75512;SDS011;64090;49.770;18.760;2024-01-07T10:26:12;10.40;;;6.80;;
75512;SDS011;64090;49.770;18.760;2024-01-07T10:29:35;9.20;;;5.80;;
75512;SDS011;64090;49.770;18.760;2024-01-07T10:32:47;8.70;;;6.20;;
75512;SDS011;64090;49.770;18.760;2024-01-07T10:36:08;9.80;;;6.60;;
75512;SDS011;64090;49.770;18.760;2024-01-07T10:43:08;10.80;;;7.40;;
75512;SDS011;64090;49.770;18.760;2024-01-07T10:46:35;11.00;;;6.60;;
75512;SDS011;64090;49.770;18.760;2024-01-07T10:49:50;9.90;;;6.20;;
75512;SDS011;64090;49.770;18.760;2024-01-07T11:04:48;11.30;;;6.00;;
75512;SDS011;64090;49.770;18.760;2024-01-07T11:12:29;8.90;;;5.40;;
75512;SDS011;64090;49.770;18.760;2024-01-07T11:15:58;11.60;;;5.80;;
75512;SDS011;64090;49.770;18.760;2024-01-07T11:23:11;10.80;;;6.70;;
75512;SDS011;64090;49.770;18.760;2024-01-07T11:27:15;13.80;;;6.80;;
75512;SDS011;64090;49.770;18.760;2024-01-07T11:30:41;8.00;;;6.30;;
75512;SDS011;64090;49.770;18.760;2024-01-07T11:33:56;7.60;;;5.30;;
75512;SDS011;64090;49.770;18.760;2024-01-07T11:41:31;10.90;;;6.90;;
75512;SDS011;64090;49.770;18.760;2024-01-07T11:52:42;11.70;;;7.10;;
75512;SDS011;64090;49.770;18.760;2024-01-07T11:56:24;9.40;;;5.50;;
75512;SDS011;64090;49.770;18.760;2024-01-07T12:00:12;10.60;;;6.50;;
75512;SDS011;64090;49.770;18.760;2024-01-07T12:07:28;10.20;;;6.00;;
75512;SDS011;64090;49.770;18.760;2024-01-07T12:25:45;11.80;;;6.90;;
75512;SDS011;64090;49.770;18.760;2024-01-07T12:28:59;11.10;;;5.70;;
75512;SDS011;64090;49.770;18.760;2024-01-07T12:32:42;11.30;;;7.80;;
75512;SDS011;64090;49.770;18.760;2024-01-07T12:39:42;13.80;;;7.60;;
75512;SDS011;64090;49.770;18.760;2024-01-07T12:54:29;12.80;;;7.90;;
75512;SDS011;64090;49.770;18.760;2024-01-07T12:58:27;10.70;;;6.90;;
75512;SDS011;64090;49.770;18.760;2024-01-07T13:01:46;12.10;;;8.60;;
75512;SDS011;64090;49.770;18.760;2024-01-07T13:16:36;11.70;;;7.30;;
75512;SDS011;64090;49.770;18.760;2024-01-07T13:19:59;14.20;;;8.10;;
75512;SDS011;64090;49.770;18.760;2024-01-07T13:31:18;9.10;;;6.60;;
75512;SDS011;64090;49.770;18.760;2024-01-07T13:38:39;11.80;;;6.70;;
75512;SDS011;64090;49.770;18.760;2024-01-07T13:49:59;12.60;;;7.10;;
75512;SDS011;64090;49.770;18.760;2024-01-07T13:53:02;16.10;;;10.60;;
75512;SDS011;64090;49.770;18.760;2024-01-07T13:56:14;15.90;;;8.70;;
75512;SDS011;64090;49.770;18.760;2024-01-07T13:59:57;12.10;;;7.70;;
75512;SDS011;64090;49.770;18.760;2024-01-07T14:03:16;14.40;;;9.40;;
75512;SDS011;64090;49.770;18.760;2024-01-07T14:06:28;15.50;;;7.60;;
75512;SDS011;64090;49.770;18.760;2024-01-07T14:09:49;14.10;;;10.00;;
75512;SDS011;64090;49.770;18.760;2024-01-07T14:13:06;16.90;;;9.00;;
75512;SDS011;64090;49.770;18.760;2024-01-07T14:16:35;14.10;;;7.70;;
75512;SDS011;64090;49.770;18.760;2024-01-07T14:38:33;14.70;;;8.20;;
75512;SDS011;64090;49.770;18.760;2024-01-07T14:49:03;18.20;;;11.30;;
75512;SDS011;64090;49.770;18.760;2024-01-07T15:00:07;19.90;;;11.70;;
75512;SDS011;64090;49.770;18.760;2024-01-07T15:03:44;16.80;;;10.10;;
75512;SDS011;64090;49.770;18.760;2024-01-07T15:07:31;17.80;;;10.20;;
75512;SDS011;64090;49.770;18.760;2024-01-07T15:10:49;18.00;;;10.60;;
75512;SDS011;64090;49.770;18.760;2024-01-07T15:14:18;24.00;;;13.60;;
75512;SDS011;64090;49.770;18.760;2024-01-07T15:21:58;14.30;;;8.80;;
75512;SDS011;64090;49.770;18.760;2024-01-07T15:25:09;19.80;;;11.90;;
75512;SDS011;64090;49.770;18.760;2024-01-07T15:28:24;17.70;;;13.60;;
75512;SDS011;64090;49.770;18.760;2024-01-07T15:31:30;22.90;;;12.40;;
75512;SDS011;64090;49.770;18.760;2024-01-07T15:34:37;26.50;;;13.10;;
75512;SDS011;64090;49.770;18.760;2024-01-07T15:37:47;20.00;;;12.30;;
75512;SDS011;64090;49.770;18.760;2024-01-07T15:44:31;16.40;;;10.20;;
75512;SDS011;64090;49.770;18.760;2024-01-07T15:47:37;20.10;;;12.30;;
75512;SDS011;64090;49.770;18.760;2024-01-07T15:50:46;16.40;;;12.00;;
75512;SDS011;64090;49.770;18.760;2024-01-07T15:53:52;18.30;;;12.20;;
75512;SDS011;64090;49.770;18.760;2024-01-07T15:56:55;16.40;;;10.30;;
75512;SDS011;64090;49.770;18.760;2024-01-07T15:59:59;25.30;;;12.70;;
75512;SDS011;64090;49.770;18.760;2024-01-07T16:03:05;16.20;;;10.50;;
75512;SDS011;64090;49.770;18.760;2024-01-07T16:06:11;24.10;;;17.60;;
75512;SDS011;64090;49.770;18.760;2024-01-07T16:09:17;21.50;;;13.60;;
75512;SDS011;64090;49.770;18.760;2024-01-07T16:12:20;17.10;;;11.20;;
75512;SDS011;64090;49.770;18.760;2024-01-07T16:15:23;18.20;;;10.00;;
75512;SDS011;64090;49.770;18.760;2024-01-07T16:18:30;18.80;;;12.70;;
75512;SDS011;64090;49.770;18.760;2024-01-07T16:21:33;18.20;;;10.00;;
75512;SDS011;64090;49.770;18.760;2024-01-07T16:24:39;14.90;;;9.50;;
75512;SDS011;64090;49.770;18.760;2024-01-07T16:27:43;19.20;;;11.70;;
75512;SDS011;64090;49.770;18.760;2024-01-07T16:30:46;21.40;;;14.50;;
75512;SDS011;64090;49.770;18.760;2024-01-07T16:33:55;25.80;;;15.20;;
75512;SDS011;64090;49.770;18.760;2024-01-07T16:37:22;21.60;;;12.90;;
75512;SDS011;64090;49.770;18.760;2024-01-07T16:40:30;22.90;;;12.40;;
75512;SDS011;64090;49.770;18.760;2024-01-07T16:43:34;25.50;;;14.60;;
75512;SDS011;64090;49.770;18.760;2024-01-07T16:46:38;21.60;;;11.80;;
75512;SDS011;64090;49.770;18.760;2024-01-07T16:49:42;20.20;;;13.80;;
75512;SDS011;64090;49.770;18.760;2024-01-07T16:52:50;22.70;;;13.00;;
75512;SDS011;64090;49.770;18.760;2024-01-07T16:55:57;20.20;;;11.20;;
75512;SDS011;64090;49.770;18.760;2024-01-07T16:59:05;25.20;;;14.40;;
75512;SDS011;64090;49.770;18.760;2024-01-07T17:02:22;20.00;;;11.80;;
75512;SDS011;64090;49.770;18.760;2024-01-07T17:05:38;25.20;;;15.20;;
75512;SDS011;64090;49.770;18.760;2024-01-07T17:08:45;28.30;;;16.00;;
75512;SDS011;64090;49.770;18.760;2024-01-07T17:12:28;24.80;;;14.20;;
75512;SDS011;64090;49.770;18.760;2024-01-07T17:15:52;27.40;;;16.60;;
75512;SDS011;64090;49.770;18.760;2024-01-07T17:18:58;18.80;;;13.10;;
75512;SDS011;64090;49.770;18.760;2024-01-07T17:22:02;24.00;;;13.70;;
75512;SDS011;64090;49.770;18.760;2024-01-07T17:25:08;25.20;;;14.10;;
75512;SDS011;64090;49.770;18.760;2024-01-07T17:31:49;23.90;;;13.00;;
75512;SDS011;64090;49.770;18.760;2024-01-07T17:35:04;22.40;;;12.10;;
75512;SDS011;64090;49.770;18.760;2024-01-07T17:38:08;22.60;;;14.50;;
75512;SDS011;64090;49.770;18.760;2024-01-07T17:42:14;19.40;;;12.20;;
75512;SDS011;64090;49.770;18.760;2024-01-07T17:45:20;18.40;;;10.40;;
75512;SDS011;64090;49.770;18.760;2024-01-07T17:48:29;21.80;;;14.80;;
75512;SDS011;64090;49.770;18.760;2024-01-07T17:51:38;13.80;;;7.40;;
75512;SDS011;64090;49.770;18.760;2024-01-07T17:54:55;19.20;;;12.10;;
75512;SDS011;64090;49.770;18.760;2024-01-07T17:58:01;13.30;;;8.00;;
75512;SDS011;64090;49.770;18.760;2024-01-07T18:01:16;19.90;;;12.40;;
75512;SDS011;64090;49.770;18.760;2024-01-07T18:04:30;16.80;;;10.40;;
75512;SDS011;64090;49.770;18.760;2024-01-07T18:07:34;13.10;;;8.80;;
75512;SDS011;64090;49.770;18.760;2024-01-07T18:10:37;20.00;;;12.60;;
75512;SDS011;64090;49.770;18.760;2024-01-07T18:13:46;18.80;;;12.20;;
75512;SDS011;64090;49.770;18.760;2024-01-07T18:16:50;18.00;;;11.10;;
75512;SDS011;64090;49.770;18.760;2024-01-07T18:20:03;24.90;;;15.00;;
75512;SDS011;64090;49.770;18.760;2024-01-07T18:23:14;20.50;;;13.50;;
75512;SDS011;64090;49.770;18.760;2024-01-07T18:26:18;21.00;;;13.10;;
75512;SDS011;64090;49.770;18.760;2024-01-07T18:29:36;34.70;;;18.50;;
75512;SDS011;64090;49.770;18.760;2024-01-07T18:32:40;20.00;;;14.00;;
75512;SDS011;64090;49.770;18.760;2024-01-07T18:35:45;16.30;;;10.60;;
75512;SDS011;64090;49.770;18.760;2024-01-07T18:38:52;29.20;;;14.50;;
75512;SDS011;64090;49.770;18.760;2024-01-07T18:41:56;21.20;;;11.90;;
75512;SDS011;64090;49.770;18.760;2024-01-07T18:44:59;19.60;;;11.70;;
75512;SDS011;64090;49.770;18.760;2024-01-07T18:48:02;16.20;;;10.20;;
75512;SDS011;64090;49.770;18.760;2024-01-07T18:51:08;27.10;;;16.00;;
75512;SDS011;64090;49.770;18.760;2024-01-07T18:54:11;17.00;;;9.80;;
75512;SDS011;64090;49.770;18.760;2024-01-07T18:57:18;23.20;;;13.70;;
75512;SDS011;64090;49.770;18.760;2024-01-07T19:00:25;24.20;;;14.10;;
75512;SDS011;64090;49.770;18.760;2024-01-07T19:03:30;25.00;;;18.10;;
75512;SDS011;64090;49.770;18.760;2024-01-07T19:06:34;17.70;;;11.30;;
75512;SDS011;64090;49.770;18.760;2024-01-07T19:09:37;21.10;;;11.30;;
75512;SDS011;64090;49.770;18.760;2024-01-07T19:12:41;22.30;;;11.70;;
75512;SDS011;64090;49.770;18.760;2024-01-07T19:15:45;18.10;;;11.90;;
75512;SDS011;64090;49.770;18.760;2024-01-07T19:18:48;17.90;;;11.00;;
75512;SDS011;64090;49.770;18.760;2024-01-07T19:21:51;21.00;;;11.30;;
75512;SDS011;64090;49.770;18.760;2024-01-07T19:24:56;14.80;;;10.80;;
75512;SDS011;64090;49.770;18.760;2024-01-07T19:28:03;20.20;;;12.50;;
75512;SDS011;64090;49.770;18.760;2024-01-07T19:31:11;14.60;;;8.60;;
75512;SDS011;64090;49.770;18.760;2024-01-07T19:34:14;21.50;;;15.10;;
75512;SDS011;64090;49.770;18.760;2024-01-07T19:37:23;17.00;;;10.20;;
75512;SDS011;64090;49.770;18.760;2024-01-07T19:40:53;21.50;;;13.90;;
75512;SDS011;64090;49.770;18.760;2024-01-07T19:43:56;20.50;;;12.10;;
75512;SDS011;64090;49.770;18.760;2024-01-07T19:47:00;24.10;;;12.30;;
75512;SDS011;64090;49.770;18.760;2024-01-07T19:50:06;34.60;;;19.40;;
75512;SDS011;64090;49.770;18.760;2024-01-07T19:53:13;22.10;;;14.40;;
75512;SDS011;64090;49.770;18.760;2024-01-07T19:56:32;24.80;;;16.50;;
75512;SDS011;64090;49.770;18.760;2024-01-07T19:59:36;24.20;;;14.90;;
75512;SDS011;64090;49.770;18.760;2024-01-07T20:02:42;23.10;;;15.10;;
75512;SDS011;64090;49.770;18.760;2024-01-07T20:06:01;21.80;;;12.20;;
75512;SDS011;64090;49.770;18.760;2024-01-07T20:09:08;23.10;;;14.30;;
75512;SDS011;64090;49.770;18.760;2024-01-07T20:12:16;23.20;;;16.30;;
75512;SDS011;64090;49.770;18.760;2024-01-07T20:15:34;22.00;;;14.60;;
75512;SDS011;64090;49.770;18.760;2024-01-07T20:18:45;25.20;;;17.40;;
75512;SDS011;64090;49.770;18.760;2024-01-07T20:21:57;23.70;;;14.70;;
75512;SDS011;64090;49.770;18.760;2024-01-07T20:25:00;29.00;;;16.20;;
75512;SDS011;64090;49.770;18.760;2024-01-07T20:28:10;26.50;;;14.90;;
75512;SDS011;64090;49.770;18.760;2024-01-07T20:31:13;21.30;;;14.90;;
75512;SDS011;64090;49.770;18.760;2024-01-07T20:34:19;24.80;;;14.50;;
75512;SDS011;64090;49.770;18.760;2024-01-07T20:37:23;25.60;;;14.10;;
75512;SDS011;64090;49.770;18.760;2024-01-07T20:40:29;21.10;;;12.80;;
75512;SDS011;64090;49.770;18.760;2024-01-07T20:43:32;23.10;;;14.10;;
75512;SDS011;64090;49.770;18.760;2024-01-07T20:46:35;27.10;;;17.30;;
75512;SDS011;64090;49.770;18.760;2024-01-07T20:49:39;20.30;;;11.00;;
75512;SDS011;64090;49.770;18.760;2024-01-07T20:52:42;23.00;;;15.10;;
75512;SDS011;64090;49.770;18.760;2024-01-07T20:55:49;23.30;;;13.20;;
75512;SDS011;64090;49.770;18.760;2024-01-07T20:58:54;18.00;;;12.60;;
75512;SDS011;64090;49.770;18.760;2024-01-07T21:01:58;25.00;;;15.10;;
75512;SDS011;64090;49.770;18.760;2024-01-07T21:05:01;22.40;;;12.60;;
75512;SDS011;64090;49.770;18.760;2024-01-07T21:08:05;22.10;;;13.00;;
75512;SDS011;64090;49.770;18.760;2024-01-07T21:11:09;26.60;;;18.80;;
75512;SDS011;64090;49.770;18.760;2024-01-07T21:14:19;21.60;;;10.40;;
75512;SDS011;64090;49.770;18.760;2024-01-07T21:17:23;25.70;;;15.30;;
75512;SDS011;64090;49.770;18.760;2024-01-07T21:20:29;22.20;;;11.50;;
75512;SDS011;64090;49.770;18.760;2024-01-07T21:23:47;20.10;;;11.80;;
75512;SDS011;64090;49.770;18.760;2024-01-07T21:26:51;25.80;;;14.70;;
75512;SDS011;64090;49.770;18.760;2024-01-07T21:29:55;15.10;;;9.10;;
75512;SDS011;64090;49.770;18.760;2024-01-07T21:32:58;24.00;;;12.10;;
75512;SDS011;64090;49.770;18.760;2024-01-07T21:36:04;22.90;;;17.40;;
75512;SDS011;64090;49.770;18.760;2024-01-07T21:39:08;22.80;;;13.00;;
75512;SDS011;64090;49.770;18.760;2024-01-07T21:42:11;25.80;;;14.30;;
75512;SDS011;64090;49.770;18.760;2024-01-07T21:45:14;26.70;;;15.70;;
75512;SDS011;64090;49.770;18.760;2024-01-07T21:48:17;28.10;;;15.70;;
75512;SDS011;64090;49.770;18.760;2024-01-07T21:51:20;24.70;;;12.80;;
75512;SDS011;64090;49.770;18.760;2024-01-07T21:54:23;22.30;;;13.80;;
75512;SDS011;64090;49.770;18.760;2024-01-07T21:57:27;19.70;;;12.50;;
75512;SDS011;64090;49.770;18.760;2024-01-07T22:00:51;28.70;;;14.90;;
75512;SDS011;64090;49.770;18.760;2024-01-07T22:03:57;20.30;;;11.00;;
75512;SDS011;64090;49.770;18.760;2024-01-07T22:07:00;20.60;;;12.20;;
75512;SDS011;64090;49.770;18.760;2024-01-07T22:10:04;27.10;;;16.50;;
75512;SDS011;64090;49.770;18.760;2024-01-07T22:13:10;27.20;;;16.60;;
75512;SDS011;64090;49.770;18.760;2024-01-07T22:16:13;22.00;;;11.30;;
75512;SDS011;64090;49.770;18.760;2024-01-07T22:19:17;27.70;;;16.70;;
75512;SDS011;64090;49.770;18.760;2024-01-07T22:22:20;27.40;;;15.10;;
75512;SDS011;64090;49.770;18.760;2024-01-07T22:25:23;23.20;;;11.60;;
75512;SDS011;64090;49.770;18.760;2024-01-07T22:28:27;25.90;;;16.90;;
75512;SDS011;64090;49.770;18.760;2024-01-07T22:31:30;20.00;;;9.60;;
75512;SDS011;64090;49.770;18.760;2024-01-07T22:34:56;16.90;;;10.40;;
75512;SDS011;64090;49.770;18.760;2024-01-07T22:38:04;20.50;;;10.50;;
75512;SDS011;64090;49.770;18.760;2024-01-07T22:41:07;17.50;;;10.90;;
75512;SDS011;64090;49.770;18.760;2024-01-07T22:44:11;26.70;;;13.40;;
75512;SDS011;64090;49.770;18.760;2024-01-07T22:47:18;27.10;;;17.60;;
75512;SDS011;64090;49.770;18.760;2024-01-07T22:50:22;23.10;;;13.30;;
75512;SDS011;64090;49.770;18.760;2024-01-07T22:53:36;21.30;;;13.90;;
75512;SDS011;64090;49.770;18.760;2024-01-07T22:56:40;23.20;;;13.70;;
75512;SDS011;64090;49.770;18.760;2024-01-07T22:59:49;18.90;;;10.30;;
75512;SDS011;64090;49.770;18.760;2024-01-07T23:02:52;25.60;;;12.70;;
75512;SDS011;64090;49.770;18.760;2024-01-07T23:06:08;25.20;;;14.50;;
75512;SDS011;64090;49.770;18.760;2024-01-07T23:09:17;22.90;;;12.60;;
75512;SDS011;64090;49.770;18.760;2024-01-07T23:12:20;21.20;;;10.60;;
75512;SDS011;64090;49.770;18.760;2024-01-07T23:18:37;18.10;;;9.80;;
75512;SDS011;64090;49.770;18.760;2024-01-07T23:21:43;26.70;;;15.70;;
75512;SDS011;64090;49.770;18.760;2024-01-07T23:24:46;25.70;;;13.30;;
75512;SDS011;64090;49.770;18.760;2024-01-07T23:28:19;22.60;;;13.60;;
75512;SDS011;64090;49.770;18.760;2024-01-07T23:31:52;24.00;;;13.70;;
75512;SDS011;64090;49.770;18.760;2024-01-07T23:35:02;29.30;;;16.80;;
75512;SDS011;64090;49.770;18.760;2024-01-07T23:41:11;25.40;;;14.50;;
75512;SDS011;64090;49.770;18.760;2024-01-07T23:44:18;24.80;;;13.20;;
75512;SDS011;64090;49.770;18.760;2024-01-07T23:47:21;21.30;;;12.20;;
75512;SDS011;64090;49.770;18.760;2024-01-07T23:50:29;19.70;;;9.10;;
75512;SDS011;64090;49.770;18.760;2024-01-07T23:53:32;27.50;;;14.60;;
75512;SDS011;64090;49.770;18.760;2024-01-07T23:56:38;21.20;;;13.30;;
75512;SDS011;64090;49.770;18.760;2024-01-07T23:59:42;20.00;;;9.50;;
